Latest Weather Observations for Witchcliffe

IDW60801

Issued at 2:24 pm WST Saturday 5 December 2020 (issued every 10 minutes, with the page automatically refreshed every 10 minutes)

About weather observations | Map of weather stations | Latest weather observations for WA | Other Formats
Station Details ID: 009746 Name: WITCHCLIFFE Lat: -34.03 Lon: 115.10 Height: 80.0 m
Data from the previous 72 hours. | See also: Recent months at Witchcliffe
Date/Time
WST
Temp
°C
App
Temp
°C
Dew
Point
°C
Rel
Hum
%
Delta-T
°C
Wind Press
QNH
hPa
Press
MSL
hPa
Rain since
9am
mm
Dir  Spd
km/h
Gust
km/h
Spd
kts
Gust
kts
05/02:00pm 19.0 14.6 8.9 52 5.3 SSW 22 32 12 17 1021.6 1021.4 0.0
05/01:30pm 19.0 15.0 8.9 52 5.3 SSW 20 33 11 18 1021.6 1021.4 0.0
05/01:00pm 18.9 15.0 8.8 52 5.3 SSW 19 28 10 15 1021.9 1021.7 0.0
05/12:30pm 19.3 15.5 8.9 51 5.5 S 19 28 10 15 1021.9 1021.7 0.0
05/12:00pm 18.8 14.7 7.9 49 5.6 S 19 30 10 16 1022.3 1022.1 0.0
05/11:30am 18.6 14.7 8.6 52 5.2 SSW 19 28 10 15 1022.5 1022.3 0.0
05/11:00am 18.1 15.0 8.7 54 4.9 SSW 15 26 8 14 1022.7 1022.5 0.0
05/10:30am 17.5 13.1 7.5 52 5.1 SW 20 30 11 16 1022.5 1022.3 0.0
05/10:00am 18.4 14.7 7.8 50 5.4 S 17 24 9 13 1022.4 1022.2 0.0
05/09:30am 17.5 13.1 6.7 49 5.4 SSW 19 26 10 14 1022.5 1022.3 0.0
05/09:00am 17.5 13.6 7.0 50 5.2 S 17 24 9 13 1022.6 1022.4 0.0
05/08:30am 16.3 13.2 7.3 55 4.5 S 13 26 7 14 1022.5 1022.3 0.0
05/08:00am 15.6 12.3 6.6 55 4.4 S 13 19 7 10 1022.5 1022.3 0.0
05/07:30am 15.9 11.9 6.6 54 4.6 SSE 17 24 9 13 1022.1 1021.9 0.0
05/07:00am 15.2 11.1 6.2 55 4.3 SSE 17 24 9 13 1022.1 1021.9 0.0
05/06:30am 14.6 10.9 6.4 58 4.0 SSW 15 22 8 12 1021.6 1021.4 0.0
05/06:00am 14.2 11.2 7.5 64 3.3 S 13 17 7 9 1021.2 1021.0 0.0
05/05:30am 13.8 11.4 7.1 64 3.3 SSW 9 13 5 7 1020.8 1020.6 0.0
05/05:00am 13.7 11.3 6.8 63 3.3 SW 9 11 5 6 1020.6 1020.4 0.0
05/04:30am 14.0 10.8 6.8 62 3.5 SSW 13 19 7 10 1020.2 1020.0 0.0
05/04:00am 13.7 11.7 7.0 64 3.3 SSW 7 11 4 6 1019.7 1019.6 0.0
05/03:30am 14.1 10.6 7.2 63 3.4 S 15 20 8 11 1019.4 1019.3 0.0
05/03:00am 14.3 11.3 7.8 65 3.2 SSW 13 19 7 10 1019.3 1019.2 0.0
05/02:30am 14.1 11.8 7.4 64 3.3 SSW 9 13 5 7 1019.0 1018.9 0.0
05/02:00am 14.4 10.9 7.0 61 3.6 S 15 20 8 11 1019.0 1018.9 0.0
05/01:30am 14.3 11.6 7.4 63 3.4 S 11 17 6 9 1019.1 1019.0 0.0
05/01:00am 14.4 12.2 9.2 71 2.7 S 11 22 6 12 1019.2 1019.1 0.0
05/12:30am 14.0 11.9 9.6 75 2.3 SSW 11 19 6 10 1019.2 1019.1 0.0
05/12:00am 13.8 11.8 7.1 64 3.3 WSW 7 9 4 5 1019.1 1019.0 0.0
 
Date/Time
WST
Temp
°C
App
Temp
°C
Dew
Point
°C
Rel
Hum
%
Delta-T
°C
Wind Press
QNH
hPa
Press
MSL
hPa
Rain since
9am
mm
Dir  Spd
km/h
Gust
km/h
Spd
kts
Gust
kts
04/11:30pm 13.9 11.0 6.5 61 3.6 SSW 11 19 6 10 1019.0 1018.9 0.0
04/11:00pm 14.5 11.1 7.8 64 3.3 SSW 15 19 8 10 1018.9 1018.8 0.0
04/10:30pm 14.8 10.7 7.8 63 3.5 SSW 19 30 10 16 1018.8 1018.7 0.0
04/10:00pm 15.1 11.1 9.2 68 3.0 SSW 20 37 11 20 1018.5 1018.3 0.0
04/09:30pm 15.1 11.9 10.1 72 2.6 SSW 17 28 9 15 1018.4 1018.2 0.0
04/09:00pm 14.5 11.7 10.1 75 2.3 SSW 15 20 8 11 1018.2 1018.0 0.0
04/08:30pm 14.9 12.2 10.5 75 2.3 SSW 15 20 8 11 1018.0 1017.8 0.0
04/08:00pm 14.8 13.2 10.2 74 2.4 SSW 9 17 5 9 1017.6 1017.4 0.0
04/07:30pm 14.9 12.1 9.9 72 2.6 SSW 15 20 8 11 1017.4 1017.2 0.0
04/07:00pm 15.2 12.0 10.0 71 2.7 SSW 17 32 9 17 1017.2 1017.0 0.0
04/06:30pm 16.2 12.9 10.9 71 2.8 SW 19 26 10 14 1016.8 1016.6 0.0
04/06:00pm 16.8 13.4 11.3 70 3.0 SW 20 33 11 18 1016.5 1016.3 0.0
04/05:30pm 16.7 12.5 11.2 70 3.0 SSW 24 33 13 18 1016.0 1015.8 0.0
04/05:00pm 17.0 13.9 11.7 71 2.9 SW 19 30 10 16 1015.8 1015.6 0.0
04/04:30pm 18.0 14.4 11.8 67 3.4 SW 22 35 12 19 1015.7 1015.5 0.0
04/04:00pm 18.5 14.6 12.0 66 3.6 WSW 24 41 13 22 1015.7 1015.5 0.0
04/03:30pm 19.8 15.7 11.6 59 4.5 WSW 24 35 13 19 1015.5 1015.3 0.0
04/03:00pm 20.3 16.2 11.5 57 4.9 WSW 24 35 13 19 1015.3 1015.1 0.0
04/02:30pm 18.5 14.4 11.6 64 3.8 SW 24 37 13 20 1015.5 1015.3 0.0
04/02:00pm 19.1 14.5 11.2 60 4.3 WSW 26 37 14 20 1015.5 1015.3 0.0
04/01:30pm 19.3 14.8 11.3 60 4.4 SW 26 37 14 20 1015.5 1015.3 0.0
04/01:00pm 20.4 15.4 11.1 55 5.1 WSW 28 43 15 23 1015.4 1015.2 0.0
04/12:30pm 19.3 15.1 12.3 64 3.9 WSW 26 39 14 21 1015.2 1015.0 0.0
04/12:00pm 19.2 15.2 11.7 62 4.1 WSW 24 43 13 23 1015.2 1015.0 0.0
04/11:30am 18.7 14.6 11.5 63 4.0 WSW 24 43 13 23 1015.0 1014.8 0.0
04/11:00am 19.7 15.4 10.9 57 4.8 WSW 24 44 13 24 1014.8 1014.6 0.0
04/10:30am 18.9 15.5 12.6 67 3.5 W 22 39 12 21 1014.7 1014.5 0.0
04/10:00am 18.9 14.0 11.2 61 4.2 W 28 43 15 23 1014.4 1014.2 0.0
04/09:30am 19.2 16.4 14.2 73 2.9 W 22 37 12 20 1014.3 1014.1 0.0
04/09:00am 16.9 15.4 15.4 91 0.9 W 17 30 9 16 1014.3 1014.1 0.2
04/08:30am 17.5 13.4 12.6 73 2.7 W 26 43 14 23 1014.1 1013.9 0.0
04/08:00am 17.9 15.2 13.0 73 2.8 WNW 19 37 10 20 1013.9 1013.7 0.0
04/07:30am 17.6 15.3 13.1 75 2.5 W 17 28 9 15 1013.9 1013.7 0.0
04/07:00am 17.6 15.2 12.7 73 2.7 WNW 17 22 9 12 1013.6 1013.4 0.0
04/06:30am 15.9 14.0 11.9 77 2.2 WNW 13 20 7 11 1013.5 1013.3 0.0
04/06:00am 15.6 13.5 13.6 88 1.1 W 17 26 9 14 1013.6 1013.4 0.0
04/05:30am 13.9 13.7 13.7 99 0.1 W 7 15 4 8 1013.2 1013.0 0.0
04/05:00am 13.0 13.9 12.8 99 0.1 CALM 0 0 0 0 1013.0 1012.8 0.0
04/04:30am 12.5 13.2 12.3 99 0.1 CALM 0 0 0 0 1012.9 1012.7 0.0
04/04:00am 12.8 13.6 12.6 99 0.1 CALM 0 0 0 0 1012.9 1012.7 0.0
04/03:30am 12.3 13.0 12.1 99 0.1 CALM 0 0 0 0 1012.9 1012.7 0.0
04/03:00am 11.7 12.1 11.4 98 0.2 CALM 0 0 0 0 1013.0 1012.8 0.0
04/02:30am 11.9 11.1 11.6 98 0.2 N 7 7 4 4 1013.4 1013.2 0.0
04/02:00am 11.8 12.2 11.3 97 0.3 CALM 0 0 0 0 1013.4 1013.2 0.0
04/01:30am 11.5 11.8 10.9 96 0.3 CALM 0 0 0 0 1013.7 1013.5 0.0
04/01:00am 11.6 11.8 10.7 94 0.5 CALM 0 0 0 0 1013.6 1013.4 0.0
04/12:30am 12.4 12.9 11.6 95 0.4 CALM 0 0 0 0 1014.2 1014.0 0.0
04/12:00am 12.5 13.0 11.7 95 0.4 CALM 0 0 0 0 1014.5 1014.3 0.0
 
Date/Time
WST
Temp
°C
App
Temp
°C
Dew
Point
°C
Rel
Hum
%
Delta-T
°C
Wind Press
QNH
hPa
Press
MSL
hPa
Rain since
9am
mm
Dir  Spd
km/h
Gust
km/h
Spd
kts
Gust
kts
03/11:30pm 12.5 13.0 11.6 94 0.5 CALM 0 0 0 0 1014.8 1014.6 0.0
03/11:00pm 11.7 11.9 10.4 92 0.7 CALM 0 0 0 0 1014.6 1014.4 0.0
03/10:30pm 12.2 12.4 10.6 90 0.8 CALM 0 0 0 0 1014.9 1014.7 0.0
03/10:00pm 12.2 11.2 10.3 88 1.0 S 6 7 3 4 1014.8 1014.6 0.0
03/09:30pm 12.7 11.6 10.6 87 1.1 S 7 9 4 5 1014.6 1014.4 0.0
03/09:00pm 12.9 11.8 10.6 86 1.2 S 7 11 4 6 1014.5 1014.3 0.0
03/08:30pm 13.1 11.8 10.1 82 1.6 SSW 7 9 4 5 1014.5 1014.3 0.0
03/08:00pm 14.4 12.9 10.6 78 2.0 S 9 13 5 7 1014.3 1014.1 0.0
03/07:30pm 15.3 13.4 10.5 73 2.5 S 11 17 6 9 1014.4 1014.2 0.0
03/07:00pm 16.0 13.0 10.5 70 2.9 S 17 22 9 12 1014.4 1014.2 0.0
03/06:30pm 17.1 13.5 10.0 63 3.8 S 19 28 10 15 1014.2 1014.0 0.0
03/06:00pm 18.0 14.6 10.4 61 4.1 S 19 28 10 15 1014.2 1014.0 0.0
03/05:30pm 18.5 14.7 11.1 62 4.0 S 22 35 12 19 1014.0 1013.8 0.0
03/05:00pm 19.4 15.6 11.2 59 4.5 SSW 22 37 12 20 1014.2 1014.0 0.0
03/04:30pm 19.8 16.5 11.6 59 4.5 S 20 32 11 17 1014.2 1014.0 0.0
03/04:00pm 20.1 16.0 11.6 58 4.7 S 24 39 13 21 1014.2 1014.0 0.0
03/03:30pm 22.1 19.2 12.4 54 5.5 S 19 28 10 15 1014.5 1014.3 0.0
03/03:00pm 21.9 18.4 12.2 54 5.5 S 22 35 12 19 1014.6 1014.4 0.0
03/02:30pm 22.0 18.8 12.0 53 5.6 S 20 33 11 18 1014.6 1014.4 0.0
03/02:00pm 22.4 18.6 12.4 53 5.7 SSW 24 33 13 18 1014.7 1014.5 0.0
03/01:30pm 22.9 19.4 12.2 51 6.1 S 22 37 12 20 1014.9 1014.7 0.0
03/01:00pm 23.5 21.6 11.9 48 6.6 S 13 20 7 11 1015.2 1015.0 0.0
03/12:30pm 22.6 20.1 11.0 48 6.5 S 15 28 8 15 1015.6 1015.4 0.0
03/12:00pm 23.0 21.2 10.8 46 6.8 S 11 20 6 11 1016.1 1015.9 0.0
03/11:30am 22.6 21.2 11.0 48 6.5 SE 9 24 5 13 1016.3 1016.1 0.0
03/11:00am 21.5 18.9 10.6 50 6.0 SSE 15 20 8 11 1016.6 1016.4 0.0
03/10:30am 21.0 18.8 10.8 52 5.6 ESE 13 24 7 13 1016.9 1016.7 0.0
03/10:00am 20.6 18.5 11.2 55 5.2 ESE 13 22 7 12 1017.2 1017.0 0.0
03/09:30am 19.2 16.5 10.2 56 4.8 ESE 15 24 8 13 1017.6 1017.4 0.0
03/09:00am 18.6 16.4 10.9 61 4.2 SE 13 24 7 13 1018.0 1017.8 0.0
03/08:30am 18.0 16.6 10.9 63 3.8 ESE 9 15 5 8 1018.2 1018.0 0.0
03/08:00am 17.2 15.7 10.6 65 3.5 ESE 9 15 5 8 1018.2 1018.0 0.0
03/07:30am 15.9 14.4 10.4 70 2.9 SE 9 13 5 7 1018.1 1017.9 0.0
03/07:00am 15.2 15.7 12.9 86 1.3 E 2 7 1 4 1018.2 1018.0 0.0
03/06:30am 12.3 13.0 12.1 99 0.1 CALM 0 0 0 0 1018.2 1018.0 0.0
03/06:00am 10.8 11.0 10.6 99 0.1 CALM 0 0 0 0 1018.3 1018.1 0.0
03/05:30am 9.1 8.9 9.0 99 0.0 CALM 0 0 0 0 1018.0 1017.8 0.0
03/05:00am 8.7 8.3 8.4 98 0.1 CALM 0 0 0 0 1018.0 1017.8 0.0
03/04:30am 9.4 9.2 9.1 98 0.1 CALM 0 0 0 0 1017.6 1017.4 0.0
03/04:00am 9.8 9.8 9.7 99 0.1 CALM 0 0 0 0 1017.8 1017.6 0.0
03/03:30am 9.1 8.8 8.8 98 0.1 CALM 0 0 0 0 1017.8 1017.6 0.0
03/03:00am 8.8 8.4 8.4 97 0.2 CALM 0 0 0 0 1017.8 1017.6 0.0
03/02:30am 8.2 7.6 7.6 96 0.3 CALM 0 0 0 0 1017.9 1017.7 0.0
03/02:00am 7.8 7.1 7.1 95 0.3 CALM 0 0 0 0 1018.0 1017.8 0.0
03/01:30am 8.2 7.6 7.4 95 0.4 CALM 0 0 0 0 1018.4 1018.2 0.0
03/01:00am 8.0 7.3 6.9 93 0.5 CALM 0 0 0 0 1018.5 1018.3 0.0
03/12:30am 8.2 7.5 7.0 92 0.6 CALM 0 0 0 0 1018.7 1018.6 0.0
03/12:00am 8.8 8.2 7.4 91 0.7 CALM 0 0 0 0 1019.1 1019.0 0.0
 
Date/Time
WST
Temp
°C
App
Temp
°C
Dew
Point
°C
Rel
Hum
%
Delta-T
°C
Wind Press
QNH
hPa
Press
MSL
hPa
Rain since
9am
mm
Dir  Spd
km/h
Gust
km/h
Spd
kts
Gust
kts
02/11:30pm 8.8 8.1 7.1 89 0.8 CALM 0 0 0 0 1019.4 1019.3 0.0
02/11:00pm 9.6 9.1 7.7 88 0.9 CALM 0 0 0 0 1019.6 1019.5 0.0
02/10:30pm 10.2 9.7 8.0 86 1.1 CALM 0 4 0 2 1019.8 1019.7 0.0
02/10:00pm 10.5 8.7 8.1 85 1.2 S 7 11 4 6 1020.1 1019.9 0.0
02/09:30pm 10.8 9.0 8.0 83 1.4 S 7 9 4 5 1020.1 1019.9 0.0
02/09:00pm 11.6 10.1 8.3 80 1.6 S 6 9 3 5 1020.1 1019.9 0.0
02/08:30pm 12.6 10.7 8.9 78 1.9 S 9 13 5 7 1019.9 1019.8 0.0
02/08:00pm 13.0 11.3 8.3 73 2.3 S 7 11 4 6 1019.7 1019.6 0.0
02/07:30pm 13.9 11.9 8.7 71 2.6 S 9 13 5 7 1019.7 1019.6 0.0
02/07:00pm 14.9 11.7 8.6 66 3.2 S 15 24 8 13 1019.5 1019.4 0.0
02/06:30pm 16.2 13.4 8.7 61 3.8 SSW 13 19 7 10 1019.4 1019.3 0.0
02/06:00pm 16.8 13.2 8.2 57 4.4 SSW 17 26 9 14 1019.2 1019.1 0.0
02/05:30pm 17.6 14.0 8.2 54 4.8 SSW 17 28 9 15 1019.0 1018.9 0.0
02/05:00pm 18.1 14.1 8.1 52 5.1 SSW 19 26 10 14 1018.8 1018.7 0.0
02/04:30pm 18.2 14.2 8.2 52 5.1 SSW 19 28 10 15 1018.8 1018.7 0.0
02/04:00pm 18.7 14.7 8.4 51 5.3 SSW 19 30 10 16 1019.0 1018.9 0.0
02/03:30pm 19.4 15.5 9.3 52 5.3 SW 20 32 11 17 1019.0 1018.9 0.0
02/03:00pm 19.6 15.8 9.8 53 5.2 SW 20 32 11 17 1019.2 1019.1 0.0
02/02:30pm 19.9 16.1 9.8 52 5.4 SW 20 32 11 17 1019.2 1019.1 0.0

Other formats

Comma delimited format used in spreadsheet applications
http://www.bom.gov.au/fwo/IDW60801/IDW60801.95641.axf

JavaScript Object Notation format (JSON) in row-major order
http://www.bom.gov.au/fwo/IDW60801/IDW60801.95641.json

Data quality

Most of these data are generated automatically and are frequently updated. Quality checks on data are not normally performed. It is possible for incorrect values to appear. Refer to information at About Latest Weather Observations and please check the disclaimer before using these data.